sensor_id;sensor_type;location;lat;lon;timestamp;temperature;humidity
33247;DHT22;19606;50.108;19.804;2022-11-20T00:00:51;-5.20;99.90
33247;DHT22;19606;50.108;19.804;2022-11-20T00:03:17;-6.30;99.90
33247;DHT22;19606;50.108;19.804;2022-11-20T00:05:43;-6.40;99.90
33247;DHT22;19606;50.108;19.804;2022-11-20T00:08:09;-6.60;99.90
33247;DHT22;19606;50.108;19.804;2022-11-20T00:10:41;-6.60;99.90
33247;DHT22;19606;50.108;19.804;2022-11-20T00:13:07;-6.50;99.90
33247;DHT22;19606;50.108;19.804;2022-11-20T00:15:33;-6.60;99.90
33247;DHT22;19606;50.108;19.804;2022-11-20T00:17:59;-6.40;99.90
33247;DHT22;19606;50.108;19.804;2022-11-20T00:20:24;-6.60;99.90
33247;DHT22;19606;50.108;19.804;2022-11-20T00:22:50;-6.60;99.90
33247;DHT22;19606;50.108;19.804;2022-11-20T00:25:16;-6.50;99.90
33247;DHT22;19606;50.108;19.804;2022-11-20T00:27:42;-6.60;99.90
33247;DHT22;19606;50.108;19.804;2022-11-20T00:30:08;-6.70;99.90
33247;DHT22;19606;50.108;19.804;2022-11-20T00:32:34;-6.60;99.90
33247;DHT22;19606;50.108;19.804;2022-11-20T00:35:00;-6.90;99.90
33247;DHT22;19606;50.108;19.804;2022-11-20T00:37:26;-6.90;99.90
33247;DHT22;19606;50.108;19.804;2022-11-20T00:39:52;-7.10;99.90
33247;DHT22;19606;50.108;19.804;2022-11-20T00:42:17;-7.20;99.90
33247;DHT22;19606;50.108;19.804;2022-11-20T00:44:43;-6.90;99.90
33247;DHT22;19606;50.108;19.804;2022-11-20T00:47:08;-7.00;99.90
33247;DHT22;19606;50.108;19.804;2022-11-20T00:49:34;-6.80;99.90
33247;DHT22;19606;50.108;19.804;2022-11-20T00:52:00;-6.70;99.90
33247;DHT22;19606;50.108;19.804;2022-11-20T00:54:25;-6.70;99.90
33247;DHT22;19606;50.108;19.804;2022-11-20T00:56:53;-6.80;99.90
33247;DHT22;19606;50.108;19.804;2022-11-20T00:59:18;-6.90;99.90
33247;DHT22;19606;50.108;19.804;2022-11-20T01:01:45;-6.80;99.90
33247;DHT22;19606;50.108;19.804;2022-11-20T01:04:10;-6.90;99.90
33247;DHT22;19606;50.108;19.804;2022-11-20T01:06:38;-6.90;99.90
33247;DHT22;19606;50.108;19.804;2022-11-20T01:09:13;-6.60;99.90
33247;DHT22;19606;50.108;19.804;2022-11-20T01:11:41;-6.80;99.90
33247;DHT22;19606;50.108;19.804;2022-11-20T01:14:14;-6.80;99.90
33247;DHT22;19606;50.108;19.804;2022-11-20T01:16:42;-6.70;99.90
33247;DHT22;19606;50.108;19.804;2022-11-20T01:19:12;-6.80;99.90
33247;DHT22;19606;50.108;19.804;2022-11-20T01:21:40;-6.90;99.90
33247;DHT22;19606;50.108;19.804;2022-11-20T01:24:08;-7.00;99.90
33247;DHT22;19606;50.108;19.804;2022-11-20T01:26:36;-7.00;99.90
33247;DHT22;19606;50.108;19.804;2022-11-20T01:29:02;-7.00;99.90
33247;DHT22;19606;50.108;19.804;2022-11-20T01:31:34;-7.00;99.90
33247;DHT22;19606;50.108;19.804;2022-11-20T01:34:02;-6.90;99.90
33247;DHT22;19606;50.108;19.804;2022-11-20T01:36:31;-7.20;99.90
33247;DHT22;19606;50.108;19.804;2022-11-20T01:38:58;-7.20;99.90
33247;DHT22;19606;50.108;19.804;2022-11-20T01:41:27;-7.30;99.90
33247;DHT22;19606;50.108;19.804;2022-11-20T01:44:13;-7.40;99.90
33247;DHT22;19606;50.108;19.804;2022-11-20T01:46:45;-7.30;99.90
33247;DHT22;19606;50.108;19.804;2022-11-20T01:49:25;-7.20;99.90
33247;DHT22;19606;50.108;19.804;2022-11-20T01:52:16;-7.00;99.90
33247;DHT22;19606;50.108;19.804;2022-11-20T01:54:48;-7.00;99.90
33247;DHT22;19606;50.108;19.804;2022-11-20T01:57:17;-7.20;99.90
33247;DHT22;19606;50.108;19.804;2022-11-20T01:59:49;-5.30;99.90
33247;DHT22;19606;50.108;19.804;2022-11-20T02:02:18;-7.20;99.90
33247;DHT22;19606;50.108;19.804;2022-11-20T02:04:44;-7.10;99.90
33247;DHT22;19606;50.108;19.804;2022-11-20T02:07:10;-7.30;99.90
33247;DHT22;19606;50.108;19.804;2022-11-20T02:09:36;-7.40;99.90
33247;DHT22;19606;50.108;19.804;2022-11-20T02:12:03;-7.40;99.90
33247;DHT22;19606;50.108;19.804;2022-11-20T02:14:29;-7.40;99.90
33247;DHT22;19606;50.108;19.804;2022-11-20T02:16:55;-7.50;99.90
33247;DHT22;19606;50.108;19.804;2022-11-20T02:19:29;-7.40;99.90
33247;DHT22;19606;50.108;19.804;2022-11-20T02:22:14;-7.40;99.90
33247;DHT22;19606;50.108;19.804;2022-11-20T02:24:43;-7.40;99.90
33247;DHT22;19606;50.108;19.804;2022-11-20T02:27:12;-7.30;99.90
33247;DHT22;19606;50.108;19.804;2022-11-20T02:29:53;-7.30;99.90
33247;DHT22;19606;50.108;19.804;2022-11-20T02:32:30;-7.30;99.90
33247;DHT22;19606;50.108;19.804;2022-11-20T02:34:56;-7.20;99.90
33247;DHT22;19606;50.108;19.804;2022-11-20T02:37:22;-7.40;99.90
33247;DHT22;19606;50.108;19.804;2022-11-20T02:39:50;-7.40;99.90
33247;DHT22;19606;50.108;19.804;2022-11-20T02:42:16;-7.40;99.90
33247;DHT22;19606;50.108;19.804;2022-11-20T02:44:42;-7.20;99.90
33247;DHT22;19606;50.108;19.804;2022-11-20T02:47:08;-7.40;99.90
33247;DHT22;19606;50.108;19.804;2022-11-20T02:49:35;-7.50;99.90
33247;DHT22;19606;50.108;19.804;2022-11-20T02:52:00;-7.40;99.90
33247;DHT22;19606;50.108;19.804;2022-11-20T02:54:29;-7.40;99.90
33247;DHT22;19606;50.108;19.804;2022-11-20T02:56:55;-7.60;99.90
33247;DHT22;19606;50.108;19.804;2022-11-20T02:59:20;-7.50;99.90
33247;DHT22;19606;50.108;19.804;2022-11-20T03:01:46;-7.70;99.90
33247;DHT22;19606;50.108;19.804;2022-11-20T03:04:11;-7.60;99.90
33247;DHT22;19606;50.108;19.804;2022-11-20T03:06:37;-7.60;99.90
33247;DHT22;19606;50.108;19.804;2022-11-20T03:09:03;-7.70;99.90
33247;DHT22;19606;50.108;19.804;2022-11-20T03:11:29;-7.70;99.90
33247;DHT22;19606;50.108;19.804;2022-11-20T03:13:54;-7.70;99.90
33247;DHT22;19606;50.108;19.804;2022-11-20T03:16:22;-7.80;99.90
33247;DHT22;19606;50.108;19.804;2022-11-20T03:18:48;-7.80;99.90
33247;DHT22;19606;50.108;19.804;2022-11-20T03:21:14;-7.80;99.90
33247;DHT22;19606;50.108;19.804;2022-11-20T03:23:40;-7.60;99.90
33247;DHT22;19606;50.108;19.804;2022-11-20T03:26:19;-7.60;99.90
33247;DHT22;19606;50.108;19.804;2022-11-20T03:28:57;-7.50;99.90
33247;DHT22;19606;50.108;19.804;2022-11-20T03:31:25;-7.50;99.90
33247;DHT22;19606;50.108;19.804;2022-11-20T03:33:51;-7.60;99.90
33247;DHT22;19606;50.108;19.804;2022-11-20T03:36:19;-7.50;99.90
33247;DHT22;19606;50.108;19.804;2022-11-20T03:38:45;-7.80;99.90
33247;DHT22;19606;50.108;19.804;2022-11-20T03:41:14;-7.60;99.90
33247;DHT22;19606;50.108;19.804;2022-11-20T03:43:40;-7.80;99.90
33247;DHT22;19606;50.108;19.804;2022-11-20T03:46:06;-7.80;99.90
33247;DHT22;19606;50.108;19.804;2022-11-20T03:48:32;-7.80;99.90
33247;DHT22;19606;50.108;19.804;2022-11-20T03:51:36;-7.90;99.90
33247;DHT22;19606;50.108;19.804;2022-11-20T03:54:04;-8.00;99.90
33247;DHT22;19606;50.108;19.804;2022-11-20T03:56:33;-7.90;99.90
33247;DHT22;19606;50.108;19.804;2022-11-20T03:58:59;-7.90;99.90
33247;DHT22;19606;50.108;19.804;2022-11-20T04:01:28;-7.90;99.90
33247;DHT22;19606;50.108;19.804;2022-11-20T04:03:55;-8.00;99.90
33247;DHT22;19606;50.108;19.804;2022-11-20T04:06:32;-8.00;99.90
33247;DHT22;19606;50.108;19.804;2022-11-20T04:08:58;-8.00;99.90
33247;DHT22;19606;50.108;19.804;2022-11-20T04:11:29;-8.00;99.90
33247;DHT22;19606;50.108;19.804;2022-11-20T04:14:00;-8.00;99.90
33247;DHT22;19606;50.108;19.804;2022-11-20T04:16:29;-7.80;99.90
33247;DHT22;19606;50.108;19.804;2022-11-20T04:18:58;-7.80;99.90
33247;DHT22;19606;50.108;19.804;2022-11-20T04:21:25;-7.70;99.90
33247;DHT22;19606;50.108;19.804;2022-11-20T04:23:52;-7.70;99.90
33247;DHT22;19606;50.108;19.804;2022-11-20T04:26:18;-7.80;99.90
33247;DHT22;19606;50.108;19.804;2022-11-20T04:28:44;-7.90;99.90
33247;DHT22;19606;50.108;19.804;2022-11-20T04:31:12;-8.00;99.90
33247;DHT22;19606;50.108;19.804;2022-11-20T04:33:39;-8.10;99.90
33247;DHT22;19606;50.108;19.804;2022-11-20T04:36:11;-8.20;99.90
33247;DHT22;19606;50.108;19.804;2022-11-20T04:38:36;-8.10;99.90
33247;DHT22;19606;50.108;19.804;2022-11-20T04:41:05;-8.20;99.90
33247;DHT22;19606;50.108;19.804;2022-11-20T04:43:32;-7.80;99.90
33247;DHT22;19606;50.108;19.804;2022-11-20T04:45:58;-8.10;99.90
33247;DHT22;19606;50.108;19.804;2022-11-20T04:48:25;-8.30;99.90
33247;DHT22;19606;50.108;19.804;2022-11-20T04:50:52;-8.40;99.90
33247;DHT22;19606;50.108;19.804;2022-11-20T04:53:18;-8.40;99.90
33247;DHT22;19606;50.108;19.804;2022-11-20T04:55:44;-8.20;99.90
33247;DHT22;19606;50.108;19.804;2022-11-20T04:58:09;-8.20;99.90
33247;DHT22;19606;50.108;19.804;2022-11-20T05:00:35;-8.20;99.90
33247;DHT22;19606;50.108;19.804;2022-11-20T05:03:01;-8.30;99.90
33247;DHT22;19606;50.108;19.804;2022-11-20T05:05:26;-8.10;99.90
33247;DHT22;19606;50.108;19.804;2022-11-20T05:07:52;-8.20;99.90
33247;DHT22;19606;50.108;19.804;2022-11-20T05:10:18;-8.30;99.90
33247;DHT22;19606;50.108;19.804;2022-11-20T05:12:43;-8.40;99.90
33247;DHT22;19606;50.108;19.804;2022-11-20T05:15:09;-8.30;99.90
33247;DHT22;19606;50.108;19.804;2022-11-20T05:17:35;-8.30;99.90
33247;DHT22;19606;50.108;19.804;2022-11-20T05:20:01;-8.10;99.90
33247;DHT22;19606;50.108;19.804;2022-11-20T05:22:26;-8.10;99.90
33247;DHT22;19606;50.108;19.804;2022-11-20T05:24:52;-8.00;99.90
33247;DHT22;19606;50.108;19.804;2022-11-20T05:27:17;-8.10;99.90
33247;DHT22;19606;50.108;19.804;2022-11-20T05:29:43;-8.20;99.90
33247;DHT22;19606;50.108;19.804;2022-11-20T05:32:08;-8.20;99.90
33247;DHT22;19606;50.108;19.804;2022-11-20T05:34:35;-8.20;99.90
33247;DHT22;19606;50.108;19.804;2022-11-20T05:37:02;-8.10;99.90
33247;DHT22;19606;50.108;19.804;2022-11-20T05:39:28;-8.20;99.90
33247;DHT22;19606;50.108;19.804;2022-11-20T05:41:53;-8.10;99.90
33247;DHT22;19606;50.108;19.804;2022-11-20T05:44:39;-8.10;99.90
33247;DHT22;19606;50.108;19.804;2022-11-20T05:47:05;-8.30;99.90
33247;DHT22;19606;50.108;19.804;2022-11-20T05:49:31;-8.20;99.90
33247;DHT22;19606;50.108;19.804;2022-11-20T05:51:57;-8.20;99.90
33247;DHT22;19606;50.108;19.804;2022-11-20T05:54:23;-8.30;99.90
33247;DHT22;19606;50.108;19.804;2022-11-20T05:56:48;-8.20;99.90
33247;DHT22;19606;50.108;19.804;2022-11-20T05:59:14;-8.10;99.90
33247;DHT22;19606;50.108;19.804;2022-11-20T06:01:40;-8.10;99.90
33247;DHT22;19606;50.108;19.804;2022-11-20T06:04:06;-8.20;99.90
33247;DHT22;19606;50.108;19.804;2022-11-20T06:06:31;-8.20;99.90
33247;DHT22;19606;50.108;19.804;2022-11-20T06:08:57;-8.10;99.90
33247;DHT22;19606;50.108;19.804;2022-11-20T06:11:24;-8.00;99.90
33247;DHT22;19606;50.108;19.804;2022-11-20T06:13:50;-8.00;99.90
33247;DHT22;19606;50.108;19.804;2022-11-20T06:16:18;-8.00;99.90
33247;DHT22;19606;50.108;19.804;2022-11-20T06:18:45;-7.90;99.90
33247;DHT22;19606;50.108;19.804;2022-11-20T06:21:14;-7.90;99.90
33247;DHT22;19606;50.108;19.804;2022-11-20T06:23:40;-7.90;99.90
33247;DHT22;19606;50.108;19.804;2022-11-20T06:26:15;-7.70;99.90
33247;DHT22;19606;50.108;19.804;2022-11-20T06:28:41;-7.60;99.90
33247;DHT22;19606;50.108;19.804;2022-11-20T06:31:07;-7.60;99.90
33247;DHT22;19606;50.108;19.804;2022-11-20T06:33:35;-7.60;99.90
33247;DHT22;19606;50.108;19.804;2022-11-20T06:36:02;-7.40;99.90
33247;DHT22;19606;50.108;19.804;2022-11-20T06:38:29;-7.30;99.90
33247;DHT22;19606;50.108;19.804;2022-11-20T06:40:55;-7.20;99.90
33247;DHT22;19606;50.108;19.804;2022-11-20T06:43:22;-8.40;99.90
33247;DHT22;19606;50.108;19.804;2022-11-20T06:45:54;-7.20;99.90
33247;DHT22;19606;50.108;19.804;2022-11-20T06:48:20;-7.20;99.90
33247;DHT22;19606;50.108;19.804;2022-11-20T06:50:46;-7.20;99.90
33247;DHT22;19606;50.108;19.804;2022-11-20T06:53:12;-7.00;99.90
33247;DHT22;19606;50.108;19.804;2022-11-20T06:55:42;-7.00;99.90
33247;DHT22;19606;50.108;19.804;2022-11-20T06:58:09;-6.80;99.90
33247;DHT22;19606;50.108;19.804;2022-11-20T07:00:35;-6.80;99.90
33247;DHT22;19606;50.108;19.804;2022-11-20T07:03:04;-6.70;99.90
33247;DHT22;19606;50.108;19.804;2022-11-20T07:05:30;-6.60;99.90
33247;DHT22;19606;50.108;19.804;2022-11-20T07:07:56;-6.30;99.90
33247;DHT22;19606;50.108;19.804;2022-11-20T07:10:22;-6.40;95.10
33247;DHT22;19606;50.108;19.804;2022-11-20T07:12:52;-4.10;99.90
33247;DHT22;19606;50.108;19.804;2022-11-20T07:15:20;-5.80;99.90
33247;DHT22;19606;50.108;19.804;2022-11-20T07:17:46;-5.50;99.90
33247;DHT22;19606;50.108;19.804;2022-11-20T07:20:13;-5.20;94.30
33247;DHT22;19606;50.108;19.804;2022-11-20T07:22:39;-4.80;68.60
33247;DHT22;19606;50.108;19.804;2022-11-20T07:25:05;-4.30;28.80
33247;DHT22;19606;50.108;19.804;2022-11-20T07:27:31;-4.40;65.00
33247;DHT22;19606;50.108;19.804;2022-11-20T07:29:57;-2.60;63.40
33247;DHT22;19606;50.108;19.804;2022-11-20T07:32:23;-4.10;99.90
33247;DHT22;19606;50.108;19.804;2022-11-20T07:34:48;-1.80;93.20
33247;DHT22;19606;50.108;19.804;2022-11-20T07:37:14;-1.20;93.10
33247;DHT22;19606;50.108;19.804;2022-11-20T07:39:41;-1.60;51.00
33247;DHT22;19606;50.108;19.804;2022-11-20T07:42:07;-1.50;1.00
33247;DHT22;19606;50.108;19.804;2022-11-20T07:44:33;-0.90;1.00
33247;DHT22;19606;50.108;19.804;2022-11-20T07:46:59;-1.00;1.00
33247;DHT22;19606;50.108;19.804;2022-11-20T07:49:25;-1.50;1.00
33247;DHT22;19606;50.108;19.804;2022-11-20T07:51:51;-0.50;1.00
33247;DHT22;19606;50.108;19.804;2022-11-20T07:54:19;-1.50;1.00
33247;DHT22;19606;50.108;19.804;2022-11-20T07:56:46;-1.00;1.00
33247;DHT22;19606;50.108;19.804;2022-11-20T07:59:11;-0.90;1.00
33247;DHT22;19606;50.108;19.804;2022-11-20T08:01:41;-0.10;1.00
33247;DHT22;19606;50.108;19.804;2022-11-20T08:04:07;0.00;1.00
33247;DHT22;19606;50.108;19.804;2022-11-20T08:06:33;-0.30;1.00
33247;DHT22;19606;50.108;19.804;2022-11-20T08:08:59;0.00;1.00
33247;DHT22;19606;50.108;19.804;2022-11-20T08:11:24;0.50;1.00
33247;DHT22;19606;50.108;19.804;2022-11-20T08:14:09;1.30;1.00
33247;DHT22;19606;50.108;19.804;2022-11-20T08:16:44;1.30;1.00
33247;DHT22;19606;50.108;19.804;2022-11-20T08:19:11;1.20;1.00
33247;DHT22;19606;50.108;19.804;2022-11-20T08:21:37;2.60;1.00
33247;DHT22;19606;50.108;19.804;2022-11-20T08:24:03;2.70;54.80
33247;DHT22;19606;50.108;19.804;2022-11-20T08:26:29;2.20;1.00
33247;DHT22;19606;50.108;19.804;2022-11-20T08:28:56;2.60;99.90
33247;DHT22;19606;50.108;19.804;2022-11-20T08:31:25;3.40;1.00
33247;DHT22;19606;50.108;19.804;2022-11-20T08:33:51;3.50;1.00
33247;DHT22;19606;50.108;19.804;2022-11-20T08:36:18;4.50;1.00
33247;DHT22;19606;50.108;19.804;2022-11-20T08:38:51;3.40;99.90
33247;DHT22;19606;50.108;19.804;2022-11-20T08:41:17;3.50;1.00
33247;DHT22;19606;50.108;19.804;2022-11-20T08:44:09;2.70;99.90
33247;DHT22;19606;50.108;19.804;2022-11-20T08:46:40;2.60;1.00
33247;DHT22;19606;50.108;19.804;2022-11-20T08:49:07;2.10;1.00
33247;DHT22;19606;50.108;19.804;2022-11-20T08:51:33;2.80;1.00
33247;DHT22;19606;50.108;19.804;2022-11-20T08:53:59;3.50;99.90
33247;DHT22;19606;50.108;19.804;2022-11-20T08:56:25;3.70;99.90
33247;DHT22;19606;50.108;19.804;2022-11-20T08:58:51;3.50;99.90
33247;DHT22;19606;50.108;19.804;2022-11-20T09:01:18;3.80;1.00
33247;DHT22;19606;50.108;19.804;2022-11-20T09:03:44;3.20;1.00
33247;DHT22;19606;50.108;19.804;2022-11-20T09:06:09;3.80;1.00
33247;DHT22;19606;50.108;19.804;2022-11-20T09:08:35;3.80;1.00
33247;DHT22;19606;50.108;19.804;2022-11-20T09:11:02;4.30;1.00
33247;DHT22;19606;50.108;19.804;2022-11-20T09:13:29;3.20;1.00
33247;DHT22;19606;50.108;19.804;2022-11-20T09:16:08;2.60;99.90
33247;DHT22;19606;50.108;19.804;2022-11-20T09:18:34;1.00;99.90
33247;DHT22;19606;50.108;19.804;2022-11-20T09:21:06;0.40;1.00
33247;DHT22;19606;50.108;19.804;2022-11-20T09:23:34;1.00;1.00
33247;DHT22;19606;50.108;19.804;2022-11-20T09:26:04;0.50;1.00
33247;DHT22;19606;50.108;19.804;2022-11-20T09:28:30;0.80;1.00
33247;DHT22;19606;50.108;19.804;2022-11-20T09:30:56;0.60;1.00
33247;DHT22;19606;50.108;19.804;2022-11-20T09:33:22;0.70;1.00
33247;DHT22;19606;50.108;19.804;2022-11-20T09:35:48;1.10;1.00
33247;DHT22;19606;50.108;19.804;2022-11-20T09:38:13;0.40;1.00
33247;DHT22;19606;50.108;19.804;2022-11-20T09:41:03;1.90;1.00
33247;DHT22;19606;50.108;19.804;2022-11-20T09:46:29;0.40;1.00
33247;DHT22;19606;50.108;19.804;2022-11-20T09:56:44;0.00;1.00
33247;DHT22;19606;50.108;19.804;2022-11-20T09:59:50;0.10;1.00
33247;DHT22;19606;50.108;19.804;2022-11-20T10:02:29;0.30;1.00
33247;DHT22;19606;50.108;19.804;2022-11-20T10:05:02;0.00;1.00
33247;DHT22;19606;50.108;19.804;2022-11-20T10:07:44;0.20;1.00
33247;DHT22;19606;50.108;19.804;2022-11-20T10:10:18;-1.20;74.40
33247;DHT22;19606;50.108;19.804;2022-11-20T10:18:23;-0.10;1.00
33247;DHT22;19606;50.108;19.804;2022-11-20T10:21:07;0.10;1.00
33247;DHT22;19606;50.108;19.804;2022-11-20T10:24:01;0.30;1.00
33247;DHT22;19606;50.108;19.804;2022-11-20T10:26:56;0.30;1.00
33247;DHT22;19606;50.108;19.804;2022-11-20T10:29:33;0.40;1.00
33247;DHT22;19606;50.108;19.804;2022-11-20T10:32:11;0.80;1.00
33247;DHT22;19606;50.108;19.804;2022-11-20T10:37:45;-0.60;1.00
33247;DHT22;19606;50.108;19.804;2022-11-20T10:43:09;0.20;1.00
33247;DHT22;19606;50.108;19.804;2022-11-20T10:46:00;0.50;1.00
33247;DHT22;19606;50.108;19.804;2022-11-20T10:48:29;0.50;1.00
33247;DHT22;19606;50.108;19.804;2022-11-20T10:51:03;1.10;1.00
33247;DHT22;19606;50.108;19.804;2022-11-20T10:56:38;0.30;1.00
33247;DHT22;19606;50.108;19.804;2022-11-20T10:59:48;0.60;1.00
33247;DHT22;19606;50.108;19.804;2022-11-20T11:02:34;0.60;1.00
33247;DHT22;19606;50.108;19.804;2022-11-20T11:07:55;0.70;1.00
33247;DHT22;19606;50.108;19.804;2022-11-20T11:10:26;1.00;1.00
33247;DHT22;19606;50.108;19.804;2022-11-20T11:12:55;1.10;1.00
33247;DHT22;19606;50.108;19.804;2022-11-20T11:15:37;0.90;1.00
33247;DHT22;19606;50.108;19.804;2022-11-20T11:18:03;0.50;1.00
33247;DHT22;19606;50.108;19.804;2022-11-20T11:20:29;0.30;1.00
33247;DHT22;19606;50.108;19.804;2022-11-20T11:22:59;0.70;1.00
33247;DHT22;19606;50.108;19.804;2022-11-20T11:27:51;1.40;1.00
33247;DHT22;19606;50.108;19.804;2022-11-20T11:30:19;1.60;1.00
33247;DHT22;19606;50.108;19.804;2022-11-20T11:32:45;1.00;1.00
33247;DHT22;19606;50.108;19.804;2022-11-20T11:35:47;1.20;1.00
33247;DHT22;19606;50.108;19.804;2022-11-20T11:38:16;1.40;1.00
33247;DHT22;19606;50.108;19.804;2022-11-20T11:40:43;2.10;1.00
33247;DHT22;19606;50.108;19.804;2022-11-20T11:43:24;1.70;1.00
33247;DHT22;19606;50.108;19.804;2022-11-20T11:46:32;1.60;1.00
33247;DHT22;19606;50.108;19.804;2022-11-20T11:49:16;1.30;1.00
33247;DHT22;19606;50.108;19.804;2022-11-20T11:56:53;1.20;1.00
33247;DHT22;19606;50.108;19.804;2022-11-20T11:59:41;1.80;1.00
33247;DHT22;19606;50.108;19.804;2022-11-20T12:03:07;1.60;1.00
33247;DHT22;19606;50.108;19.804;2022-11-20T12:05:20;1.40;1.00
33247;DHT22;19606;50.108;19.804;2022-11-20T12:07:49;1.40;1.00
33247;DHT22;19606;50.108;19.804;2022-11-20T12:13:20;1.30;1.00
33247;DHT22;19606;50.108;19.804;2022-11-20T12:15:44;1.30;1.00
33247;DHT22;19606;50.108;19.804;2022-11-20T12:18:16;1.30;1.00
33247;DHT22;19606;50.108;19.804;2022-11-20T12:20:49;1.20;1.00
33247;DHT22;19606;50.108;19.804;2022-11-20T12:23:30;1.20;1.00
33247;DHT22;19606;50.108;19.804;2022-11-20T12:26:05;0.80;1.00
33247;DHT22;19606;50.108;19.804;2022-11-20T12:29:09;1.30;1.00
33247;DHT22;19606;50.108;19.804;2022-11-20T12:37:06;1.00;1.00
33247;DHT22;19606;50.108;19.804;2022-11-20T12:39:42;1.00;1.00
33247;DHT22;19606;50.108;19.804;2022-11-20T12:42:34;1.00;1.00
33247;DHT22;19606;50.108;19.804;2022-11-20T12:45:54;0.90;1.00
33247;DHT22;19606;50.108;19.804;2022-11-20T12:48:44;0.70;1.00
33247;DHT22;19606;50.108;19.804;2022-11-20T13:00:53;0.50;1.00
33247;DHT22;19606;50.108;19.804;2022-11-20T13:08:03;0.40;1.00
33247;DHT22;19606;50.108;19.804;2022-11-20T13:16:19;0.30;1.00
33247;DHT22;19606;50.108;19.804;2022-11-20T13:18:45;0.40;1.00
33247;DHT22;19606;50.108;19.804;2022-11-20T13:21:22;0.70;1.00
33247;DHT22;19606;50.108;19.804;2022-11-20T13:24:07;0.80;1.00
33247;DHT22;19606;50.108;19.804;2022-11-20T13:26:33;1.30;1.00
33247;DHT22;19606;50.108;19.804;2022-11-20T13:29:10;2.70;1.00
33247;DHT22;19606;50.108;19.804;2022-11-20T13:31:39;2.70;99.90
33247;DHT22;19606;50.108;19.804;2022-11-20T13:34:12;1.90;1.00
33247;DHT22;19606;50.108;19.804;2022-11-20T13:36:52;1.00;1.00
33247;DHT22;19606;50.108;19.804;2022-11-20T13:39:37;0.70;1.00
33247;DHT22;19606;50.108;19.804;2022-11-20T13:42:23;1.10;1.00
33247;DHT22;19606;50.108;19.804;2022-11-20T13:44:54;1.50;1.00
33247;DHT22;19606;50.108;19.804;2022-11-20T13:47:26;0.90;1.00
33247;DHT22;19606;50.108;19.804;2022-11-20T13:49:52;1.00;1.00
33247;DHT22;19606;50.108;19.804;2022-11-20T14:00:23;0.50;1.00
33247;DHT22;19606;50.108;19.804;2022-11-20T14:03:09;0.20;1.00
33247;DHT22;19606;50.108;19.804;2022-11-20T14:05:40;0.20;1.00
33247;DHT22;19606;50.108;19.804;2022-11-20T14:08:21;0.50;1.00
33247;DHT22;19606;50.108;19.804;2022-11-20T14:10:48;0.60;1.00
33247;DHT22;19606;50.108;19.804;2022-11-20T14:13:20;0.70;1.00
33247;DHT22;19606;50.108;19.804;2022-11-20T14:15:46;1.30;1.00
33247;DHT22;19606;50.108;19.804;2022-11-20T14:18:21;0.40;1.00
33247;DHT22;19606;50.108;19.804;2022-11-20T14:20:47;0.30;1.00
33247;DHT22;19606;50.108;19.804;2022-11-20T14:23:24;0.10;1.00
33247;DHT22;19606;50.108;19.804;2022-11-20T14:25:50;0.00;14.60
33247;DHT22;19606;50.108;19.804;2022-11-20T14:28:34;-0.20;53.50
33247;DHT22;19606;50.108;19.804;2022-11-20T14:30:59;-0.10;96.90
33247;DHT22;19606;50.108;19.804;2022-11-20T14:33:26;-0.50;99.90
33247;DHT22;19606;50.108;19.804;2022-11-20T14:35:54;-0.10;99.90
33247;DHT22;19606;50.108;19.804;2022-11-20T14:38:24;-0.30;99.90
33247;DHT22;19606;50.108;19.804;2022-11-20T14:40:50;-1.40;99.90
33247;DHT22;19606;50.108;19.804;2022-11-20T14:43:25;-0.70;99.90
33247;DHT22;19606;50.108;19.804;2022-11-20T14:46:00;-0.90;99.90
33247;DHT22;19606;50.108;19.804;2022-11-20T14:48:47;-1.00;99.90
33247;DHT22;19606;50.108;19.804;2022-11-20T14:53:55;-1.40;99.90
33247;DHT22;19606;50.108;19.804;2022-11-20T14:56:23;-1.60;99.90
33247;DHT22;19606;50.108;19.804;2022-11-20T14:58:57;-1.40;99.90
33247;DHT22;19606;50.108;19.804;2022-11-20T15:01:30;-1.60;99.90
33247;DHT22;19606;50.108;19.804;2022-11-20T15:04:09;0.30;99.90
33247;DHT22;19606;50.108;19.804;2022-11-20T15:06:36;-2.00;99.90
33247;DHT22;19606;50.108;19.804;2022-11-20T15:09:12;-1.50;99.90
33247;DHT22;19606;50.108;19.804;2022-11-20T15:11:38;-0.20;99.90
33247;DHT22;19606;50.108;19.804;2022-11-20T15:14:06;-2.00;99.90
33247;DHT22;19606;50.108;19.804;2022-11-20T15:16:32;-2.10;99.90
33247;DHT22;19606;50.108;19.804;2022-11-20T15:18:58;-1.00;99.90
33247;DHT22;19606;50.108;19.804;2022-11-20T15:21:24;-1.90;99.90
33247;DHT22;19606;50.108;19.804;2022-11-20T15:23:50;-0.90;99.90
33247;DHT22;19606;50.108;19.804;2022-11-20T15:26:25;-0.10;99.90
33247;DHT22;19606;50.108;19.804;2022-11-20T15:28:51;-1.60;99.90
33247;DHT22;19606;50.108;19.804;2022-11-20T15:31:20;-2.30;99.90
33247;DHT22;19606;50.108;19.804;2022-11-20T15:33:47;-2.00;99.90
33247;DHT22;19606;50.108;19.804;2022-11-20T15:36:12;-1.30;99.90
33247;DHT22;19606;50.108;19.804;2022-11-20T15:38:38;-2.00;99.90
33247;DHT22;19606;50.108;19.804;2022-11-20T15:41:04;-1.30;99.90
33247;DHT22;19606;50.108;19.804;2022-11-20T15:43:30;-1.80;99.90
33247;DHT22;19606;50.108;19.804;2022-11-20T15:46:06;-0.70;99.90
33247;DHT22;19606;50.108;19.804;2022-11-20T15:48:42;-1.50;99.90
33247;DHT22;19606;50.108;19.804;2022-11-20T15:53:40;0.60;99.90
33247;DHT22;19606;50.108;19.804;2022-11-20T15:56:11;-1.50;99.90
33247;DHT22;19606;50.108;19.804;2022-11-20T15:58:36;-3.20;99.90
33247;DHT22;19606;50.108;19.804;2022-11-20T16:01:02;-1.30;99.90
33247;DHT22;19606;50.108;19.804;2022-11-20T16:03:28;-1.20;99.90
33247;DHT22;19606;50.108;19.804;2022-11-20T16:05:53;-1.00;99.90
33247;DHT22;19606;50.108;19.804;2022-11-20T16:08:19;0.10;99.90
33247;DHT22;19606;50.108;19.804;2022-11-20T16:10:45;1.00;99.90
33247;DHT22;19606;50.108;19.804;2022-11-20T16:13:15;-0.10;99.90
33247;DHT22;19606;50.108;19.804;2022-11-20T16:16:03;-0.40;99.90
33247;DHT22;19606;50.108;19.804;2022-11-20T16:18:30;-1.00;99.90
33247;DHT22;19606;50.108;19.804;2022-11-20T16:20:56;-0.90;99.90
33247;DHT22;19606;50.108;19.804;2022-11-20T16:23:23;-1.00;99.90
33247;DHT22;19606;50.108;19.804;2022-11-20T16:25:49;-1.00;99.90
33247;DHT22;19606;50.108;19.804;2022-11-20T16:28:16;-1.00;99.90
33247;DHT22;19606;50.108;19.804;2022-11-20T16:30:42;-1.20;99.90
33247;DHT22;19606;50.108;19.804;2022-11-20T16:33:13;-0.70;99.90
33247;DHT22;19606;50.108;19.804;2022-11-20T16:35:39;-1.20;99.90
33247;DHT22;19606;50.108;19.804;2022-11-20T16:38:05;-0.70;99.90
33247;DHT22;19606;50.108;19.804;2022-11-20T16:40:30;-0.40;99.90
33247;DHT22;19606;50.108;19.804;2022-11-20T16:42:56;-1.00;99.90
33247;DHT22;19606;50.108;19.804;2022-11-20T16:45:23;-0.60;99.90
33247;DHT22;19606;50.108;19.804;2022-11-20T16:47:49;-0.80;99.90
33247;DHT22;19606;50.108;19.804;2022-11-20T16:50:14;-0.10;99.90
33247;DHT22;19606;50.108;19.804;2022-11-20T16:52:40;-0.40;99.90
33247;DHT22;19606;50.108;19.804;2022-11-20T16:55:08;-0.60;99.90
33247;DHT22;19606;50.108;19.804;2022-11-20T16:57:34;-0.60;99.90
33247;DHT22;19606;50.108;19.804;2022-11-20T17:00:00;-0.50;99.90